sensor_id;sensor_type;location;lat;lon;timestamp;pressure;altitude;pressure_sealevel;temperature;humidity
71917;BME280;59793;46.506;6.674;2023-05-11T00:01:25;97132.91;;;12.97;69.36
71917;BME280;59793;46.506;6.674;2023-05-11T00:03:50;97135.72;;;13.08;69.50
71917;BME280;59793;46.506;6.674;2023-05-11T00:06:15;97141.00;;;13.08;69.24
71917;BME280;59793;46.506;6.674;2023-05-11T00:08:40;97133.41;;;13.06;69.28
71917;BME280;59793;46.506;6.674;2023-05-11T00:11:06;97135.72;;;13.08;69.56
71917;BME280;59793;46.506;6.674;2023-05-11T00:13:32;97134.59;;;13.09;69.57
71917;BME280;59793;46.506;6.674;2023-05-11T00:15:57;97127.50;;;13.16;69.62
71917;BME280;59793;46.506;6.674;2023-05-11T00:18:22;97126.75;;;13.16;69.45
71917;BME280;59793;46.506;6.674;2023-05-11T00:20:47;97122.31;;;12.97;69.39
71917;BME280;59793;46.506;6.674;2023-05-11T00:23:13;97122.53;;;12.88;69.84
71917;BME280;59793;46.506;6.674;2023-05-11T00:25:38;97116.44;;;12.84;70.09
71917;BME280;59793;46.506;6.674;2023-05-11T00:28:04;97114.97;;;12.87;69.67
71917;BME280;59793;46.506;6.674;2023-05-11T00:30:29;97112.50;;;12.98;68.88
71917;BME280;59793;46.506;6.674;2023-05-11T00:32:54;97109.50;;;12.99;69.24
71917;BME280;59793;46.506;6.674;2023-05-11T00:35:20;97119.84;;;13.08;69.21
71917;BME280;59793;46.506;6.674;2023-05-11T00:37:45;97109.81;;;13.21;69.30
71917;BME280;59793;46.506;6.674;2023-05-11T00:40:10;97117.94;;;13.31;69.67
71917;BME280;59793;46.506;6.674;2023-05-11T00:42:36;97115.19;;;13.24;69.76
71917;BME280;59793;46.506;6.674;2023-05-11T00:45:01;97112.41;;;13.17;70.21
71917;BME280;59793;46.506;6.674;2023-05-11T00:47:27;97111.63;;;13.16;70.23
71917;BME280;59793;46.506;6.674;2023-05-11T00:49:52;97105.78;;;13.04;70.35
71917;BME280;59793;46.506;6.674;2023-05-11T00:52:21;97111.16;;;13.07;70.52
71917;BME280;59793;46.506;6.674;2023-05-11T00:54:46;97106.34;;;13.16;70.39
71917;BME280;59793;46.506;6.674;2023-05-11T00:57:12;97109.31;;;13.11;70.34
71917;BME280;59793;46.506;6.674;2023-05-11T00:59:37;97104.63;;;13.01;71.20
71917;BME280;59793;46.506;6.674;2023-05-11T01:02:03;97100.88;;;12.79;72.21
71917;BME280;59793;46.506;6.674;2023-05-11T01:04:28;97103.41;;;12.72;72.54
71917;BME280;59793;46.506;6.674;2023-05-11T01:06:59;97104.97;;;12.77;72.23
71917;BME280;59793;46.506;6.674;2023-05-11T01:14:44;97094.47;;;12.80;72.98
71917;BME280;59793;46.506;6.674;2023-05-11T01:17:14;97104.41;;;12.87;72.86
71917;BME280;59793;46.506;6.674;2023-05-11T01:19:43;97102.97;;;12.93;73.48
71917;BME280;59793;46.506;6.674;2023-05-11T01:22:27;97098.47;;;12.94;73.32
71917;BME280;59793;46.506;6.674;2023-05-11T01:27:43;97095.75;;;12.90;73.54
71917;BME280;59793;46.506;6.674;2023-05-11T01:30:23;97097.94;;;12.84;73.82
71917;BME280;59793;46.506;6.674;2023-05-11T01:32:50;97100.34;;;12.70;74.26
71917;BME280;59793;46.506;6.674;2023-05-11T01:35:17;97103.88;;;12.55;75.45
71917;BME280;59793;46.506;6.674;2023-05-11T01:37:45;97102.75;;;12.56;75.99
71917;BME280;59793;46.506;6.674;2023-05-11T01:40:12;97110.56;;;12.49;76.24
71917;BME280;59793;46.506;6.674;2023-05-11T01:42:40;97104.25;;;12.57;76.13
71917;BME280;59793;46.506;6.674;2023-05-11T01:45:07;97104.03;;;12.42;75.71
71917;BME280;59793;46.506;6.674;2023-05-11T01:47:34;97101.50;;;12.50;75.49
71917;BME280;59793;46.506;6.674;2023-05-11T01:50:01;97097.22;;;12.64;74.99
71917;BME280;59793;46.506;6.674;2023-05-11T01:52:28;97101.59;;;12.76;74.85
71917;BME280;59793;46.506;6.674;2023-05-11T01:54:54;97102.78;;;12.82;74.40
71917;BME280;59793;46.506;6.674;2023-05-11T01:57:21;97100.63;;;12.88;74.00
71917;BME280;59793;46.506;6.674;2023-05-11T01:59:47;97096.16;;;12.92;74.04
71917;BME280;59793;46.506;6.674;2023-05-11T02:02:14;97103.84;;;13.01;73.88
71917;BME280;59793;46.506;6.674;2023-05-11T02:04:40;97101.66;;;13.06;74.06
71917;BME280;59793;46.506;6.674;2023-05-11T02:07:07;97099.66;;;13.00;74.10
71917;BME280;59793;46.506;6.674;2023-05-11T02:09:34;97093.34;;;13.04;73.76
71917;BME280;59793;46.506;6.674;2023-05-11T02:12:00;97098.63;;;13.04;74.06
71917;BME280;59793;46.506;6.674;2023-05-11T02:14:26;97096.75;;;13.05;73.57
71917;BME280;59793;46.506;6.674;2023-05-11T02:16:57;97100.16;;;13.05;73.85
71917;BME280;59793;46.506;6.674;2023-05-11T02:19:23;97095.72;;;13.13;73.64
71917;BME280;59793;46.506;6.674;2023-05-11T02:21:49;97098.25;;;13.06;73.98
71917;BME280;59793;46.506;6.674;2023-05-11T02:24:17;97102.38;;;13.03;74.39
71917;BME280;59793;46.506;6.674;2023-05-11T02:26:43;97099.75;;;12.80;75.72
71917;BME280;59793;46.506;6.674;2023-05-11T02:29:08;97096.41;;;12.83;73.99
71917;BME280;59793;46.506;6.674;2023-05-11T02:31:35;97105.38;;;13.02;73.18
71917;BME280;59793;46.506;6.674;2023-05-11T02:34:03;97103.97;;;13.08;74.25
71917;BME280;59793;46.506;6.674;2023-05-11T02:36:30;97104.69;;;13.05;74.98
71917;BME280;59793;46.506;6.674;2023-05-11T02:38:58;97099.97;;;12.95;75.18
71917;BME280;59793;46.506;6.674;2023-05-11T02:41:26;97098.19;;;13.02;74.86
71917;BME280;59793;46.506;6.674;2023-05-11T02:43:53;97097.56;;;13.09;74.97
71917;BME280;59793;46.506;6.674;2023-05-11T02:46:20;97099.44;;;13.08;75.13
71917;BME280;59793;46.506;6.674;2023-05-11T02:48:51;97088.38;;;13.03;74.91
71917;BME280;59793;46.506;6.674;2023-05-11T02:51:19;97090.16;;;12.95;74.92
71917;BME280;59793;46.506;6.674;2023-05-11T02:53:46;97082.16;;;12.91;74.71
71917;BME280;59793;46.506;6.674;2023-05-11T02:56:12;97087.03;;;12.89;74.90
71917;BME280;59793;46.506;6.674;2023-05-11T02:58:38;97083.78;;;13.00;75.22
71917;BME280;59793;46.506;6.674;2023-05-11T03:01:05;97077.34;;;12.97;75.65
71917;BME280;59793;46.506;6.674;2023-05-11T03:03:30;97086.50;;;13.03;75.56
71917;BME280;59793;46.506;6.674;2023-05-11T03:05:56;97082.69;;;13.01;75.98
71917;BME280;59793;46.506;6.674;2023-05-11T03:08:21;97082.69;;;13.01;76.30
71917;BME280;59793;46.506;6.674;2023-05-11T03:10:46;97088.09;;;13.08;76.38
71917;BME280;59793;46.506;6.674;2023-05-11T03:13:12;97074.88;;;13.08;76.38
71917;BME280;59793;46.506;6.674;2023-05-11T03:15:38;97083.91;;;13.07;76.61
71917;BME280;59793;46.506;6.674;2023-05-11T03:18:04;97075.38;;;12.90;76.87
71917;BME280;59793;46.506;6.674;2023-05-11T03:20:30;97074.06;;;12.81;76.35
71917;BME280;59793;46.506;6.674;2023-05-11T03:22:57;97068.94;;;12.91;76.17
71917;BME280;59793;46.506;6.674;2023-05-11T03:25:23;97070.53;;;12.96;75.59
71917;BME280;59793;46.506;6.674;2023-05-11T03:27:48;97069.88;;;13.03;75.54
71917;BME280;59793;46.506;6.674;2023-05-11T03:30:14;97068.34;;;13.02;75.71
71917;BME280;59793;46.506;6.674;2023-05-11T03:32:41;97067.81;;;12.92;76.21
71917;BME280;59793;46.506;6.674;2023-05-11T03:35:06;97071.97;;;12.90;76.53
71917;BME280;59793;46.506;6.674;2023-05-11T03:37:32;97067.00;;;12.88;77.20
71917;BME280;59793;46.506;6.674;2023-05-11T03:39:58;97070.56;;;13.00;76.63
71917;BME280;59793;46.506;6.674;2023-05-11T03:42:29;97052.47;;;13.02;76.85
71917;BME280;59793;46.506;6.674;2023-05-11T03:44:55;97059.41;;;12.83;78.01
71917;BME280;59793;46.506;6.674;2023-05-11T03:47:24;97056.84;;;12.90;77.30
71917;BME280;59793;46.506;6.674;2023-05-11T03:49:50;97051.97;;;12.92;77.23
71917;BME280;59793;46.506;6.674;2023-05-11T03:52:15;97063.06;;;13.02;77.68
71917;BME280;59793;46.506;6.674;2023-05-11T03:54:41;97055.06;;;12.98;77.64
71917;BME280;59793;46.506;6.674;2023-05-11T03:57:07;97054.91;;;12.87;78.47
71917;BME280;59793;46.506;6.674;2023-05-11T03:59:33;97054.00;;;12.76;79.14
71917;BME280;59793;46.506;6.674;2023-05-11T04:01:58;97047.47;;;12.70;79.27
71917;BME280;59793;46.506;6.674;2023-05-11T04:04:28;97041.06;;;12.71;79.28
71917;BME280;59793;46.506;6.674;2023-05-11T04:06:54;97047.47;;;12.70;79.10
71917;BME280;59793;46.506;6.674;2023-05-11T04:09:20;97056.59;;;12.73;78.69
71917;BME280;59793;46.506;6.674;2023-05-11T04:11:45;97052.13;;;12.77;78.59
71917;BME280;59793;46.506;6.674;2023-05-11T04:14:10;97041.47;;;12.73;79.12
71917;BME280;59793;46.506;6.674;2023-05-11T04:16:35;97056.31;;;12.55;79.66
71917;BME280;59793;46.506;6.674;2023-05-11T04:19:01;97050.06;;;12.43;80.57
71917;BME280;59793;46.506;6.674;2023-05-11T04:21:29;97054.41;;;12.32;80.96
71917;BME280;59793;46.506;6.674;2023-05-11T04:23:55;97048.09;;;12.37;80.75
71917;BME280;59793;46.506;6.674;2023-05-11T04:26:21;97049.22;;;12.39;80.87
71917;BME280;59793;46.506;6.674;2023-05-11T04:28:46;97055.34;;;12.43;80.29
71917;BME280;59793;46.506;6.674;2023-05-11T04:31:13;97045.50;;;12.40;79.84
71917;BME280;59793;46.506;6.674;2023-05-11T04:33:38;97046.19;;;12.37;80.73
71917;BME280;59793;46.506;6.674;2023-05-11T04:36:04;97043.50;;;12.34;80.68
71917;BME280;59793;46.506;6.674;2023-05-11T04:38:29;97050.59;;;12.30;81.10
71917;BME280;59793;46.506;6.674;2023-05-11T04:40:55;97048.72;;;12.30;81.54
71917;BME280;59793;46.506;6.674;2023-05-11T04:43:20;97040.03;;;12.30;81.67
71917;BME280;59793;46.506;6.674;2023-05-11T04:45:49;97047.28;;;12.36;82.04
71917;BME280;59793;46.506;6.674;2023-05-11T04:48:15;97057.53;;;12.38;81.86
71917;BME280;59793;46.506;6.674;2023-05-11T04:50:40;97035.19;;;12.35;81.91
71917;BME280;59793;46.506;6.674;2023-05-11T04:53:11;97049.22;;;12.39;81.99
71917;BME280;59793;46.506;6.674;2023-05-11T04:55:36;97046.25;;;12.41;81.64
71917;BME280;59793;46.506;6.674;2023-05-11T04:58:01;97049.66;;;12.41;81.64
71917;BME280;59793;46.506;6.674;2023-05-11T05:00:27;97059.03;;;12.39;81.75
71917;BME280;59793;46.506;6.674;2023-05-11T05:02:52;97055.53;;;12.31;82.20
71917;BME280;59793;46.506;6.674;2023-05-11T05:05:17;97055.53;;;12.31;82.35
71917;BME280;59793;46.506;6.674;2023-05-11T05:07:43;97064.38;;;12.42;82.17
71917;BME280;59793;46.506;6.674;2023-05-11T05:10:08;97055.56;;;12.58;82.03
71917;BME280;59793;46.506;6.674;2023-05-11T05:12:43;97054.88;;;12.61;81.90
71917;BME280;59793;46.506;6.674;2023-05-11T05:15:08;97051.94;;;12.66;81.57
71917;BME280;59793;46.506;6.674;2023-05-11T05:17:34;97054.38;;;12.78;80.70
71917;BME280;59793;46.506;6.674;2023-05-11T05:19:59;97055.72;;;12.91;79.95
71917;BME280;59793;46.506;6.674;2023-05-11T05:22:25;97057.13;;;13.08;78.84
71917;BME280;59793;46.506;6.674;2023-05-11T05:24:51;97051.06;;;13.08;78.83
71917;BME280;59793;46.506;6.674;2023-05-11T05:27:16;97055.75;;;13.18;78.78
71917;BME280;59793;46.506;6.674;2023-05-11T05:29:41;97059.63;;;13.24;78.50
71917;BME280;59793;46.506;6.674;2023-05-11T05:32:08;97055.31;;;13.43;77.22
71917;BME280;59793;46.506;6.674;2023-05-11T05:34:33;97057.97;;;13.43;77.12
71917;BME280;59793;46.506;6.674;2023-05-11T05:36:58;97051.56;;;13.44;77.73
71917;BME280;59793;46.506;6.674;2023-05-11T05:39:23;97054.25;;;13.47;76.75
71917;BME280;59793;46.506;6.674;2023-05-11T05:41:49;97054.59;;;13.46;75.82
71917;BME280;59793;46.506;6.674;2023-05-11T05:44:14;97061.59;;;13.57;75.03
71917;BME280;59793;46.506;6.674;2023-05-11T05:46:39;97056.69;;;13.59;74.21
71917;BME280;59793;46.506;6.674;2023-05-11T05:49:05;97052.56;;;13.62;73.45
71917;BME280;59793;46.506;6.674;2023-05-11T05:51:30;97052.09;;;13.56;74.36
71917;BME280;59793;46.506;6.674;2023-05-11T05:53:56;97054.91;;;13.71;73.45
71917;BME280;59793;46.506;6.674;2023-05-11T05:56:22;97055.03;;;13.81;73.22
71917;BME280;59793;46.506;6.674;2023-05-11T05:58:47;97060.28;;;13.78;71.51
71917;BME280;59793;46.506;6.674;2023-05-11T06:01:12;97062.56;;;13.76;72.32
71917;BME280;59793;46.506;6.674;2023-05-11T06:03:37;97057.81;;;13.58;73.90
71917;BME280;59793;46.506;6.674;2023-05-11T06:06:04;97061.50;;;13.50;74.29
71917;BME280;59793;46.506;6.674;2023-05-11T06:08:29;97061.41;;;13.43;74.45
71917;BME280;59793;46.506;6.674;2023-05-11T06:10:54;97060.63;;;13.43;75.11
71917;BME280;59793;46.506;6.674;2023-05-11T06:13:20;97060.44;;;13.28;75.12
71917;BME280;59793;46.506;6.674;2023-05-11T06:15:47;97049.84;;;13.28;75.92
71917;BME280;59793;46.506;6.674;2023-05-11T06:18:12;97053.63;;;13.27;75.59
71917;BME280;59793;46.506;6.674;2023-05-11T06:20:37;97053.09;;;13.18;75.43
71917;BME280;59793;46.506;6.674;2023-05-11T06:23:02;97056.47;;;13.15;74.85
71917;BME280;59793;46.506;6.674;2023-05-11T06:25:28;97052.69;;;13.16;74.84
71917;BME280;59793;46.506;6.674;2023-05-11T06:27:53;97057.97;;;13.16;73.23
71917;BME280;59793;46.506;6.674;2023-05-11T06:30:18;97050.75;;;13.13;74.51
71917;BME280;59793;46.506;6.674;2023-05-11T06:32:44;97046.72;;;13.23;73.82
71917;BME280;59793;46.506;6.674;2023-05-11T06:35:09;97047.63;;;13.30;73.74
71917;BME280;59793;46.506;6.674;2023-05-11T06:37:34;97046.25;;;13.40;73.74
71917;BME280;59793;46.506;6.674;2023-05-11T06:40:00;97043.94;;;13.38;74.21
71917;BME280;59793;46.506;6.674;2023-05-11T06:42:25;97043.97;;;13.42;72.93
71917;BME280;59793;46.506;6.674;2023-05-11T06:44:50;97045.63;;;13.50;73.47
71917;BME280;59793;46.506;6.674;2023-05-11T06:47:15;97040.31;;;13.50;74.17
71917;BME280;59793;46.506;6.674;2023-05-11T06:49:41;97039.28;;;13.58;73.91
71917;BME280;59793;46.506;6.674;2023-05-11T06:52:07;97046.13;;;13.63;74.38
71917;BME280;59793;46.506;6.674;2023-05-11T06:54:32;97041.13;;;13.54;74.10
71917;BME280;59793;46.506;6.674;2023-05-11T06:56:58;97044.94;;;13.57;73.68
71917;BME280;59793;46.506;6.674;2023-05-11T06:59:23;97038.69;;;13.72;74.00
71917;BME280;59793;46.506;6.674;2023-05-11T07:01:49;97037.38;;;13.59;72.22
71917;BME280;59793;46.506;6.674;2023-05-11T07:04:14;97037.97;;;13.75;71.25
71917;BME280;59793;46.506;6.674;2023-05-11T07:06:39;97039.63;;;13.91;72.18
71917;BME280;59793;46.506;6.674;2023-05-11T07:09:04;97041.53;;;13.90;70.95
71917;BME280;59793;46.506;6.674;2023-05-11T07:11:30;97046.88;;;13.94;70.97
71917;BME280;59793;46.506;6.674;2023-05-11T07:13:56;97045.34;;;13.93;71.27
71917;BME280;59793;46.506;6.674;2023-05-11T07:16:21;97035.78;;;13.84;70.74
71917;BME280;59793;46.506;6.674;2023-05-11T07:18:47;97050.03;;;13.73;71.13
71917;BME280;59793;46.506;6.674;2023-05-11T07:21:12;97044.41;;;13.78;70.87
71917;BME280;59793;46.506;6.674;2023-05-11T07:23:37;97046.72;;;13.79;69.71
71917;BME280;59793;46.506;6.674;2023-05-11T07:26:03;97044.38;;;13.74;69.27
71917;BME280;59793;46.506;6.674;2023-05-11T07:28:33;97039.97;;;13.85;69.50
71917;BME280;59793;46.506;6.674;2023-05-11T07:30:58;97041.56;;;13.94;69.20
71917;BME280;59793;46.506;6.674;2023-05-11T07:33:23;97040.09;;;13.96;69.17
71917;BME280;59793;46.506;6.674;2023-05-11T07:35:49;97049.22;;;14.02;69.16
71917;BME280;59793;46.506;6.674;2023-05-11T07:38:15;97039.72;;;13.98;68.63
71917;BME280;59793;46.506;6.674;2023-05-11T07:40:40;97047.06;;;14.11;68.57
71917;BME280;59793;46.506;6.674;2023-05-11T07:43:05;97042.94;;;13.80;69.35
71917;BME280;59793;46.506;6.674;2023-05-11T07:45:31;97046.47;;;13.58;70.83
71917;BME280;59793;46.506;6.674;2023-05-11T07:47:56;97041.06;;;13.51;72.10
71917;BME280;59793;46.506;6.674;2023-05-11T07:50:21;97041.59;;;13.33;71.95
71917;BME280;59793;46.506;6.674;2023-05-11T07:52:46;97042.06;;;13.12;72.17
71917;BME280;59793;46.506;6.674;2023-05-11T07:55:12;97040.84;;;13.33;72.53
71917;BME280;59793;46.506;6.674;2023-05-11T07:57:37;97041.75;;;13.44;71.92
71917;BME280;59793;46.506;6.674;2023-05-11T08:00:02;97038.31;;;13.74;71.32
71917;BME280;59793;46.506;6.674;2023-05-11T08:02:29;97041.38;;;13.76;71.65
71917;BME280;59793;46.506;6.674;2023-05-11T08:04:54;97039.97;;;13.85;71.10
71917;BME280;59793;46.506;6.674;2023-05-11T08:07:20;97034.09;;;14.03;70.16
71917;BME280;59793;46.506;6.674;2023-05-11T08:09:45;97040.66;;;13.79;71.76
71917;BME280;59793;46.506;6.674;2023-05-11T08:12:10;97036.06;;;13.76;71.85
71917;BME280;59793;46.506;6.674;2023-05-11T08:14:36;97035.13;;;13.57;71.58
71917;BME280;59793;46.506;6.674;2023-05-11T08:17:01;97038.53;;;13.31;72.31
71917;BME280;59793;46.506;6.674;2023-05-11T08:19:27;97040.03;;;13.59;71.28
71917;BME280;59793;46.506;6.674;2023-05-11T08:21:52;97030.44;;;13.47;71.04
71917;BME280;59793;46.506;6.674;2023-05-11T08:24:17;97037.28;;;13.82;70.34
71917;BME280;59793;46.506;6.674;2023-05-11T08:26:42;97028.09;;;13.72;70.83
71917;BME280;59793;46.506;6.674;2023-05-11T08:29:09;97030.19;;;13.59;71.03
71917;BME280;59793;46.506;6.674;2023-05-11T08:31:35;97023.44;;;13.96;70.19
71917;BME280;59793;46.506;6.674;2023-05-11T08:34:00;97022.53;;;13.84;68.02
71917;BME280;59793;46.506;6.674;2023-05-11T08:36:25;97018.72;;;13.78;69.75
71917;BME280;59793;46.506;6.674;2023-05-11T08:38:51;97027.63;;;14.00;67.85
71917;BME280;59793;46.506;6.674;2023-05-11T08:41:16;97025.47;;;14.13;66.61
71917;BME280;59793;46.506;6.674;2023-05-11T08:43:41;97022.44;;;14.52;65.75
71917;BME280;59793;46.506;6.674;2023-05-11T08:46:07;97027.00;;;14.55;66.46
71917;BME280;59793;46.506;6.674;2023-05-11T08:48:35;97030.13;;;14.64;66.65
71917;BME280;59793;46.506;6.674;2023-05-11T08:51:00;97023.88;;;14.42;67.66
71917;BME280;59793;46.506;6.674;2023-05-11T08:53:27;97024.75;;;14.53;67.44
71917;BME280;59793;46.506;6.674;2023-05-11T08:55:53;97020.56;;;14.52;68.39
71917;BME280;59793;46.506;6.674;2023-05-11T08:58:19;97022.50;;;14.59;68.53
71917;BME280;59793;46.506;6.674;2023-05-11T09:00:47;97022.56;;;14.70;69.08
71917;BME280;59793;46.506;6.674;2023-05-11T09:03:13;97019.09;;;14.58;70.17
71917;BME280;59793;46.506;6.674;2023-05-11T09:05:38;97013.50;;;14.67;68.33
71917;BME280;59793;46.506;6.674;2023-05-11T09:08:03;97015.41;;;14.70;68.55
71917;BME280;59793;46.506;6.674;2023-05-11T09:10:30;97012.50;;;14.90;66.78
71917;BME280;59793;46.506;6.674;2023-05-11T09:12:56;97012.16;;;14.95;65.47
71917;BME280;59793;46.506;6.674;2023-05-11T09:15:21;97003.41;;;14.91;65.23
71917;BME280;59793;46.506;6.674;2023-05-11T09:17:47;97002.63;;;14.87;65.18
71917;BME280;59793;46.506;6.674;2023-05-11T09:20:12;97005.00;;;14.99;64.44
71917;BME280;59793;46.506;6.674;2023-05-11T09:22:41;97000.47;;;15.06;64.01
71917;BME280;59793;46.506;6.674;2023-05-11T09:25:07;97006.94;;;15.09;63.79
71917;BME280;59793;46.506;6.674;2023-05-11T09:27:39;96995.53;;;15.05;61.96
71917;BME280;59793;46.506;6.674;2023-05-11T09:30:15;96998.19;;;15.05;62.28
71917;BME280;59793;46.506;6.674;2023-05-11T09:35:23;96989.66;;;14.74;63.44
71917;BME280;59793;46.506;6.674;2023-05-11T09:40:50;96981.81;;;14.92;61.35
71917;BME280;59793;46.506;6.674;2023-05-11T09:45:48;96979.69;;;15.23;59.07
71917;BME280;59793;46.506;6.674;2023-05-11T09:50:45;96971.34;;;15.21;60.29
71917;BME280;59793;46.506;6.674;2023-05-11T09:53:10;96971.78;;;15.26;60.99
71917;BME280;59793;46.506;6.674;2023-05-11T09:55:35;96979.78;;;15.37;60.18
71917;BME280;59793;46.506;6.674;2023-05-11T09:58:02;96978.66;;;15.45;60.29
71917;BME280;59793;46.506;6.674;2023-05-11T10:00:28;96969.28;;;15.69;57.14
71917;BME280;59793;46.506;6.674;2023-05-11T10:03:04;96968.53;;;15.72;58.32
71917;BME280;59793;46.506;6.674;2023-05-11T10:05:30;96960.22;;;15.88;56.72
71917;BME280;59793;46.506;6.674;2023-05-11T10:08:03;96959.09;;;16.36;54.78
71917;BME280;59793;46.506;6.674;2023-05-11T10:10:30;96961.38;;;16.62;53.23
71917;BME280;59793;46.506;6.674;2023-05-11T10:12:57;96959.88;;;16.76;52.95
71917;BME280;59793;46.506;6.674;2023-05-11T10:15:22;96960.25;;;16.49;54.15
71917;BME280;59793;46.506;6.674;2023-05-11T10:17:55;96957.59;;;16.42;52.82
71917;BME280;59793;46.506;6.674;2023-05-11T10:20:22;96965.53;;;15.99;54.52
71917;BME280;59793;46.506;6.674;2023-05-11T10:22:49;96960.19;;;15.70;54.19
71917;BME280;59793;46.506;6.674;2023-05-11T10:25:14;96955.63;;;15.71;54.52
71917;BME280;59793;46.506;6.674;2023-05-11T10:27:40;96963.97;;;15.69;56.20
71917;BME280;59793;46.506;6.674;2023-05-11T10:30:06;96969.66;;;15.68;56.34
71917;BME280;59793;46.506;6.674;2023-05-11T10:32:37;96970.81;;;15.70;55.45
71917;BME280;59793;46.506;6.674;2023-05-11T10:35:03;96963.97;;;15.69;57.00
71917;BME280;59793;46.506;6.674;2023-05-11T10:37:29;96964.63;;;15.41;57.79
71917;BME280;59793;46.506;6.674;2023-05-11T10:39:55;96971.78;;;15.26;60.00
71917;BME280;59793;46.506;6.674;2023-05-11T10:45:12;96967.25;;;14.65;65.24
71917;BME280;59793;46.506;6.674;2023-05-11T11:03:09;96959.13;;;14.95;60.98
71917;BME280;59793;46.506;6.674;2023-05-11T11:05:35;96953.69;;;14.80;60.68
71917;BME280;59793;46.506;6.674;2023-05-11T11:08:02;96955.25;;;14.85;63.40
71917;BME280;59793;46.506;6.674;2023-05-11T11:10:29;96949.38;;;14.54;60.65
71917;BME280;59793;46.506;6.674;2023-05-11T11:13:05;96949.47;;;14.17;63.64
71917;BME280;59793;46.506;6.674;2023-05-11T11:18:18;96947.66;;;14.28;65.57
71917;BME280;59793;46.506;6.674;2023-05-11T11:20:44;96943.38;;;14.17;64.52
71917;BME280;59793;46.506;6.674;2023-05-11T11:23:27;96935.81;;;14.15;65.41
71917;BME280;59793;46.506;6.674;2023-05-11T11:25:55;96936.56;;;14.16;64.79
71917;BME280;59793;46.506;6.674;2023-05-11T11:28:20;96935.06;;;14.18;64.90
71917;BME280;59793;46.506;6.674;2023-05-11T11:30:46;96934.22;;;14.07;65.67
71917;BME280;59793;46.506;6.674;2023-05-11T11:40:34;96919.78;;;14.49;64.21
71917;BME280;59793;46.506;6.674;2023-05-11T11:43:08;96928.44;;;14.42;64.47
71917;BME280;59793;46.506;6.674;2023-05-11T11:45:34;96926.47;;;14.87;63.42
71917;BME280;59793;46.506;6.674;2023-05-11T11:48:10;96916.41;;;15.28;60.33
71917;BME280;59793;46.506;6.674;2023-05-11T11:50:37;96909.22;;;15.36;63.34
71917;BME280;59793;46.506;6.674;2023-05-11T11:53:03;96909.56;;;15.17;60.69
71917;BME280;59793;46.506;6.674;2023-05-11T11:55:47;96907.00;;;15.56;60.24
71917;BME280;59793;46.506;6.674;2023-05-11T11:58:46;96906.31;;;16.16;59.61
71917;BME280;59793;46.506;6.674;2023-05-11T12:00:58;96905.56;;;16.05;57.00
71917;BME280;59793;46.506;6.674;2023-05-11T12:03:23;96901.38;;;15.86;57.84
71917;BME280;59793;46.506;6.674;2023-05-11T12:05:49;96908.22;;;15.73;58.54
71917;BME280;59793;46.506;6.674;2023-05-11T12:08:17;96912.59;;;15.29;58.17
71917;BME280;59793;46.506;6.674;2023-05-11T12:10:43;96915.97;;;15.12;56.13
71917;BME280;59793;46.506;6.674;2023-05-11T12:13:10;96906.19;;;15.34;59.88
71917;BME280;59793;46.506;6.674;2023-05-11T12:15:36;96895.13;;;15.11;58.55
71917;BME280;59793;46.506;6.674;2023-05-11T12:18:01;96901.97;;;15.22;60.41
71917;BME280;59793;46.506;6.674;2023-05-11T12:20:27;96893.81;;;14.72;61.42
71917;BME280;59793;46.506;6.674;2023-05-11T12:22:52;96893.81;;;14.76;62.04
71917;BME280;59793;46.506;6.674;2023-05-11T12:25:18;96888.69;;;15.19;61.77
71917;BME280;59793;46.506;6.674;2023-05-11T12:27:51;96884.06;;;14.98;60.26
71917;BME280;59793;46.506;6.674;2023-05-11T12:30:19;96883.66;;;14.89;59.08
71917;BME280;59793;46.506;6.674;2023-05-11T12:32:45;96872.72;;;15.01;58.38
71917;BME280;59793;46.506;6.674;2023-05-11T12:35:13;96876.19;;;15.19;57.50
71917;BME280;59793;46.506;6.674;2023-05-11T12:37:41;96879.69;;;15.45;56.09
71917;BME280;59793;46.506;6.674;2023-05-11T12:40:09;96867.19;;;15.63;52.57
71917;BME280;59793;46.506;6.674;2023-05-11T12:42:35;96863.75;;;15.56;54.58
71917;BME280;59793;46.506;6.674;2023-05-11T12:45:00;96867.53;;;15.47;53.91
71917;BME280;59793;46.506;6.674;2023-05-11T12:47:26;96862.66;;;15.71;52.24
71917;BME280;59793;46.506;6.674;2023-05-11T12:49:51;96847.13;;;15.66;51.54
71917;BME280;59793;46.506;6.674;2023-05-11T12:52:16;96845.59;;;15.75;51.59
71917;BME280;59793;46.506;6.674;2023-05-11T12:54:49;96843.31;;;15.67;51.39
71917;BME280;59793;46.506;6.674;2023-05-11T12:57:24;96835.75;;;15.76;50.34
71917;BME280;59793;46.506;6.674;2023-05-11T13:00:03;96834.97;;;15.75;51.43
71917;BME280;59793;46.506;6.674;2023-05-11T13:02:29;96829.28;;;15.95;50.73
71917;BME280;59793;46.506;6.674;2023-05-11T13:04:54;96829.63;;;15.90;52.31
71917;BME280;59793;46.506;6.674;2023-05-11T13:07:26;96831.91;;;16.23;52.57
71917;BME280;59793;46.506;6.674;2023-05-11T13:09:55;96823.44;;;16.68;52.14
71917;BME280;59793;46.506;6.674;2023-05-11T13:12:20;96812.88;;;16.25;53.58
71917;BME280;59793;46.506;6.674;2023-05-11T13:14:47;96812.94;;;16.00;54.44
71917;BME280;59793;46.506;6.674;2023-05-11T13:17:13;96812.47;;;16.44;53.65
71917;BME280;59793;46.506;6.674;2023-05-11T13:19:39;96802.84;;;16.90;52.20
71917;BME280;59793;46.506;6.674;2023-05-11T13:22:05;96808.31;;;16.43;52.22
71917;BME280;59793;46.506;6.674;2023-05-11T13:24:31;96803.16;;;16.99;51.11
71917;BME280;59793;46.506;6.674;2023-05-11T13:26:56;96803.56;;;17.57;51.81
71917;BME280;59793;46.506;6.674;2023-05-11T13:29:22;96791.63;;;17.76;51.76
71917;BME280;59793;46.506;6.674;2023-05-11T13:31:48;96800.38;;;18.21;52.66
71917;BME280;59793;46.506;6.674;2023-05-11T13:34:13;96793.84;;;17.84;54.71
71917;BME280;59793;46.506;6.674;2023-05-11T13:36:39;96809.81;;;17.36;52.73
71917;BME280;59793;46.506;6.674;2023-05-11T13:39:05;96806.34;;;16.65;55.54
71917;BME280;59793;46.506;6.674;2023-05-11T13:41:31;96807.97;;;16.23;56.73
71917;BME280;59793;46.506;6.674;2023-05-11T13:43:56;96803.09;;;15.79;57.22